Time;durP1;ratioP1;P1;durP2;ratioP2;P2;SDS_P1;SDS_P2;PMS_P1;PMS_P2;Temp;Humidity;BMP_temperature;BMP_pressure;BME280_temperature;BME280_humidity;BME280_pressure;Samples;Min_cycle;Max_cycle;Signal;HPM_P1;HPM_P2
2021/08/10 00:01:26;;;;;;;2.90;1.65;;;;;;;16.23;63.40;100956.03;4895485;28;126482;-72
2021/08/10 00:03:52;;;;;;;3.67;1.95;;;;;;;16.24;63.52;100944.06;4898445;28;123242;-72
2021/08/10 00:06:19;;;;;;;2.13;1.42;;;;;;;16.31;63.67;100947.22;4923614;28;98443;-72
2021/08/10 00:08:45;;;;;;;2.45;1.52;;;;;;;16.34;63.47;100948.53;4878438;28;128313;-64
2021/08/10 00:11:11;;;;;;;3.22;1.45;;;;;;;16.31;63.47;100954.53;4880396;28;126088;-71
2021/08/10 00:13:37;;;;;;;2.90;1.50;;;;;;;16.33;63.57;100960.50;4881236;28;117361;-71
2021/08/10 00:16:03;;;;;;;2.58;1.40;;;;;;;16.35;63.63;100959.13;4880614;28;128142;-65
2021/08/10 00:18:29;;;;;;;3.45;1.52;;;;;;;16.38;63.54;100961.25;4895035;28;104083;-64
2021/08/10 00:20:55;;;;;;;2.63;1.55;;;;;;;16.41;63.71;100957.94;4879435;28;127793;-65
2021/08/10 00:23:21;;;;;;;2.63;1.70;;;;;;;16.45;63.72;100958.16;4880383;28;123904;-65
2021/08/10 00:25:48;;;;;;;3.17;1.65;;;;;;;16.50;63.45;100955.34;4882079;28;98156;-65
2021/08/10 00:28:15;;;;;;;3.15;1.55;;;;;;;16.55;63.59;100951.78;4897815;28;127485;-64
2021/08/10 00:30:42;;;;;;;3.67;1.80;;;;;;;16.58;63.50;100948.44;4899399;28;111289;-65
2021/08/10 00:33:12;;;;;;;3.35;1.63;;;;;;;16.58;63.18;100949.25;4898174;28;97922;-65
2021/08/10 00:35:38;;;;;;;3.90;1.60;;;;;;;16.64;63.59;100952.72;4900218;28;98772;-71
2021/08/10 00:38:04;;;;;;;3.83;1.60;;;;;;;16.67;63.52;100954.84;4898892;28;127697;-71
2021/08/10 00:40:30;;;;;;;2.47;1.52;;;;;;;16.66;63.59;100948.59;4929797;28;119880;-65
2021/08/10 00:42:56;;;;;;;4.32;1.40;;;;;;;16.66;63.43;100958.66;4913537;28;110359;-71
2021/08/10 00:45:22;;;;;;;2.38;1.50;;;;;;;16.66;63.37;100953.22;4898331;28;124121;-72
2021/08/10 00:47:49;;;;;;;3.50;1.77;;;;;;;16.67;63.35;100946.69;4899516;28;98683;-72
2021/08/10 00:50:15;;;;;;;2.97;1.50;;;;;;;16.70;63.35;100951.50;4899081;28;118129;-65
2021/08/10 00:52:41;;;;;;;2.35;1.40;;;;;;;16.72;63.37;100946.59;4899852;28;122066;-65
2021/08/10 00:55:08;;;;;;;3.70;1.75;;;;;;;16.76;63.37;100949.56;4913564;28;121507;-71
2021/08/10 00:57:35;;;;;;;3.40;1.73;;;;;;;16.74;63.43;100949.88;4929465;28;111836;-65
2021/08/10 01:00:01;;;;;;;1.75;1.20;;;;;;;16.73;63.61;100956.41;4896250;28;99488;-64
2021/08/10 01:02:27;;;;;;;5.53;1.98;;;;;;;16.74;63.45;100951.75;4883766;28;98090;-70
2021/08/10 01:04:54;;;;;;;3.47;1.60;;;;;;;16.76;63.60;100955.00;4897643;28;98008;-71
2021/08/10 01:07:48;;;;;;;3.05;1.67;;;;;;;16.74;63.34;100949.03;4900119;28;126330;-65
2021/08/10 01:10:32;;;;;;;3.33;1.83;;;;;;;16.78;63.64;100952.78;4915799;28;116542;-71
2021/08/10 01:13:35;;;;;;;3.35;1.70;;;;;;;16.78;63.79;100959.06;4915094;28;98001;-65
2021/08/10 01:16:21;;;;;;;;;;;;;;;16.80;62.93;100954.09;4934087;28;98684;-65
2021/08/10 01:18:55;;;;;;;2.75;1.50;;;;;;;16.86;63.47;100952.94;4901578;28;98584;-72
2021/08/10 01:21:28;;;;;;;3.03;1.67;;;;;;;16.95;63.60;100947.63;4931859;28;98387;-65
2021/08/10 01:24:03;;;;;;;2.58;1.45;;;;;;;17.02;63.25;100950.75;4897538;28;97706;-71
2021/08/10 01:27:05;;;;;;;3.47;1.33;;;;;;;17.07;63.21;100942.50;4897543;28;98025;-64
2021/08/10 01:30:03;;;;;;;3.88;1.80;;;;;;;17.09;63.36;100942.19;4881342;28;98422;-71
2021/08/10 01:32:30;;;;;;;2.53;1.75;;;;;;;17.08;63.31;100943.28;4912286;28;99019;-65
2021/08/10 01:34:56;;;;;;;2.65;1.60;;;;;;;17.07;63.42;100947.94;4897797;28;110774;-71
2021/08/10 01:37:29;;;;;;;3.72;1.70;;;;;;;17.07;63.18;100941.69;4882898;28;99286;-71
2021/08/10 01:39:58;;;;;;;4.82;1.70;;;;;;;17.05;63.54;100943.88;4881432;28;119954;-71
2021/08/10 01:42:24;;;;;;;2.78;1.63;;;;;;;17.03;63.61;100937.94;4910824;28;117510;-71
2021/08/10 01:44:51;;;;;;;2.55;1.38;;;;;;;17.02;63.70;100939.88;4933761;28;98425;-71
2021/08/10 01:47:17;;;;;;;3.03;1.20;;;;;;;17.00;63.84;100931.19;4914834;28;98736;-71
2021/08/10 01:49:43;;;;;;;2.17;1.67;;;;;;;17.02;63.55;100934.44;4932854;28;123672;-65
2021/08/10 01:52:14;;;;;;;3.92;1.60;;;;;;;17.01;63.54;100932.78;4911796;28;126546;-71
2021/08/10 01:54:41;;;;;;;2.63;1.73;;;;;;;17.02;63.50;100936.34;4902555;28;107031;-71
2021/08/10 01:57:08;;;;;;;3.50;1.95;;;;;;;17.02;63.76;100937.16;4900376;28;116774;-71
2021/08/10 01:59:34;;;;;;;2.03;1.50;;;;;;;17.02;63.47;100931.69;4900356;28;117377;-71
2021/08/10 02:02:00;;;;;;;4.07;1.70;;;;;;;17.02;63.42;100928.97;4901872;28;98388;-65
2021/08/10 02:04:26;;;;;;;3.67;1.90;;;;;;;17.02;63.39;100931.69;4902666;28;97854;-65
2021/08/10 02:06:52;;;;;;;3.35;1.60;;;;;;;17.02;63.50;100926.25;4893088;28;98849;-71
2021/08/10 02:09:20;;;;;;;5.28;1.70;;;;;;;17.05;63.31;100930.28;4895465;28;113355;-71
2021/08/10 02:11:47;;;;;;;3.20;1.98;;;;;;;17.03;63.59;100936.03;4883175;28;97916;-71
2021/08/10 02:14:13;;;;;;;3.00;1.77;;;;;;;16.98;63.72;100936.13;4906242;28;97788;-65
2021/08/10 02:16:39;;;;;;;3.13;2.28;;;;;;;16.92;63.46;100940.03;4901875;28;116428;-71
2021/08/10 02:19:07;;;;;;;2.58;1.65;;;;;;;16.84;63.75;100938.78;4931702;28;128017;-65
2021/08/10 02:21:38;;;;;;;4.53;2.05;;;;;;;16.76;63.82;100939.47;4900526;28;97934;-71
2021/08/10 02:24:10;;;;;;;3.75;2.28;;;;;;;16.71;64.07;100928.66;4900468;28;98025;-71
2021/08/10 02:26:45;;;;;;;3.83;2.10;;;;;;;16.67;63.77;100925.72;4900053;28;97937;-65
2021/08/10 02:29:12;;;;;;;2.63;1.88;;;;;;;16.64;64.35;100925.50;4899513;28;117760;-65
2021/08/10 02:31:38;;;;;;;3.13;1.88;;;;;;;16.63;64.19;100921.97;4884001;28;98023;-71
2021/08/10 02:34:04;;;;;;;3.75;2.30;;;;;;;16.62;64.27;100923.09;4883276;28;110958;-64
2021/08/10 02:36:31;;;;;;;4.65;2.40;;;;;;;16.61;64.20;100913.28;4898708;28;127965;-71
2021/08/10 02:39:01;;;;;;;3.53;2.40;;;;;;;16.57;64.30;100914.97;4883046;28;99195;-71
2021/08/10 02:41:27;;;;;;;2.85;2.10;;;;;;;16.54;64.50;100915.56;4899180;28;99821;-65
2021/08/10 02:43:53;;;;;;;4.03;2.28;;;;;;;16.53;64.50;100911.22;4883626;28;99222;-71
2021/08/10 02:46:19;;;;;;;3.65;2.30;;;;;;;16.52;64.40;100908.81;4899489;28;128031;-64
2021/08/10 02:48:45;;;;;;;4.07;2.05;;;;;;;16.45;64.44;100906.47;4900856;28;120645;-71
2021/08/10 02:51:11;;;;;;;3.08;1.70;;;;;;;16.39;64.57;100908.47;4900588;28;97965;-64
2021/08/10 02:53:37;;;;;;;3.42;1.70;;;;;;;16.34;64.70;100907.72;4901077;28;110093;-65
2021/08/10 02:56:24;;;;;;;4.72;2.03;;;;;;;16.28;64.56;100907.00;4900993;28;126733;-72
2021/08/10 02:59:03;;;;;;;3.80;2.05;;;;;;;16.25;64.70;100910.31;4883868;28;100471;-65
2021/08/10 03:01:42;;;;;;;2.60;2.20;;;;;;;16.19;64.54;100908.75;4900892;28;99804;-71
2021/08/10 03:04:08;;;;;;;3.45;2.05;;;;;;;16.18;65.23;100909.84;4884166;28;98112;-71
2021/08/10 03:06:34;;;;;;;3.75;2.33;;;;;;;16.14;64.76;100915.06;4899023;28;110113;-64
2021/08/10 03:09:02;;;;;;;3.25;2.28;;;;;;;16.09;65.18;100912.44;4899047;28;111706;-71
2021/08/10 03:11:33;;;;;;;2.47;2.05;;;;;;;16.07;65.04;100908.38;4900465;28;98533;-71
2021/08/10 03:13:59;;;;;;;3.92;1.85;;;;;;;16.04;65.34;100909.00;4884612;28;97928;-65
2021/08/10 03:16:25;;;;;;;4.82;2.33;;;;;;;15.99;65.23;100904.41;4883622;28;106692;-71
2021/08/10 03:18:52;;;;;;;2.70;1.70;;;;;;;15.95;65.63;100898.78;4867425;28;98428;-71
2021/08/10 03:21:20;;;;;;;2.95;1.60;;;;;;;15.90;65.46;100898.81;4866671;28;98296;-64
2021/08/10 03:23:46;;;;;;;4.13;2.05;;;;;;;15.92;65.69;100910.22;4900874;28;97848;-71
2021/08/10 03:26:14;;;;;;;3.05;1.85;;;;;;;15.92;65.35;100906.69;4899009;28;111513;-65
2021/08/10 03:28:41;;;;;;;2.83;1.58;;;;;;;15.92;65.26;100904.78;4887521;28;98850;-64
2021/08/10 03:31:09;;;;;;;3.47;1.98;;;;;;;15.90;65.52;100898.81;4867779;28;98014;-72
2021/08/10 03:33:35;;;;;;;4.00;1.95;;;;;;;15.90;65.44;100906.97;4898963;28;111112;-73
2021/08/10 03:36:01;;;;;;;3.00;2.00;;;;;;;15.85;65.64;100896.19;4899372;28;127843;-64
2021/08/10 03:38:27;;;;;;;4.07;1.92;;;;;;;15.85;65.34;100898.91;4898757;28;104872;-71
2021/08/10 03:40:53;;;;;;;3.80;2.35;;;;;;;15.83;65.33;100892.94;4913779;28;126388;-65
2021/08/10 03:43:20;;;;;;;3.45;2.42;;;;;;;15.83;65.67;100900.28;4881898;28;98084;-71
2021/08/10 03:45:46;;;;;;;3.00;2.10;;;;;;;15.82;65.45;100895.94;4882586;28;98218;-71
2021/08/10 03:48:12;;;;;;;3.55;2.10;;;;;;;15.81;65.60;100899.78;4898274;28;126714;-65
2021/08/10 03:50:39;;;;;;;4.05;1.80;;;;;;;15.80;65.68;100893.53;4862427;28;126980;-72
2021/08/10 03:53:06;;;;;;;4.13;2.10;;;;;;;15.81;65.66;100891.63;4897369;28;98192;-64
2021/08/10 03:55:32;;;;;;;3.65;2.20;;;;;;;15.81;65.27;100899.78;4897555;28;127751;-64
2021/08/10 03:57:58;;;;;;;4.57;2.55;;;;;;;15.78;65.31;100894.91;4898403;28;116834;-72
2021/08/10 04:00:25;;;;;;;5.10;2.30;;;;;;;15.77;65.60;100896.03;4897673;28;128267;-64
2021/08/10 04:02:51;;;;;;;5.60;2.47;;;;;;;15.78;65.62;100890.28;4898259;28;108185;-64
2021/08/10 04:05:17;;;;;;;4.38;2.28;;;;;;;15.80;65.50;100889.97;4898683;28;98810;-71
2021/08/10 04:07:43;;;;;;;5.40;2.20;;;;;;;15.80;65.33;100890.81;4898392;28;113288;-71
2021/08/10 04:10:10;;;;;;;3.95;2.28;;;;;;;15.83;65.17;100892.94;4882558;28;98128;-64
2021/08/10 04:12:37;;;;;;;3.72;2.25;;;;;;;15.84;65.17;100891.84;4900195;28;97864;-64
2021/08/10 04:15:05;;;;;;;3.70;2.08;;;;;;;15.85;65.23;100890.75;4881076;28;129148;-65
2021/08/10 04:17:34;;;;;;;3.83;2.40;;;;;;;15.88;65.60;100892.06;4899478;28;97931;-72
2021/08/10 04:20:00;;;;;;;4.70;2.83;;;;;;;15.84;65.78;100880.97;4898583;28;98323;-65
2021/08/10 04:22:26;;;;;;;4.45;2.38;;;;;;;15.84;65.39;100886.41;4899831;28;98048;-71
2021/08/10 04:24:52;;;;;;;3.05;1.98;;;;;;;15.80;65.93;100888.09;4900569;28;98868;-71
2021/08/10 04:27:18;;;;;;;3.63;2.33;;;;;;;15.81;65.60;100884.28;4900463;28;98611;-71
2021/08/10 04:29:44;;;;;;;3.65;2.00;;;;;;;15.84;65.67;100877.47;4900218;28;98129;-71
2021/08/10 04:32:10;;;;;;;3.47;2.20;;;;;;;15.86;65.84;100877.97;4902532;28;98148;-71
2021/08/10 04:34:36;;;;;;;3.08;1.45;;;;;;;15.87;65.64;100882.28;4888150;28;128209;-65
2021/08/10 04:37:03;;;;;;;4.53;1.90;;;;;;;15.84;65.39;100870.09;4906297;28;125146;-65
2021/08/10 04:39:30;;;;;;;3.75;1.98;;;;;;;15.82;65.62;100876.91;4905759;28;97867;-71
2021/08/10 04:41:56;;;;;;;3.90;2.25;;;;;;;15.82;66.10;100882.34;4904529;28;98069;-65
2021/08/10 04:44:22;;;;;;;5.68;2.28;;;;;;;15.86;66.15;100880.66;4897833;28;127640;-72
2021/08/10 04:46:49;;;;;;;3.38;1.90;;;;;;;15.90;66.09;100870.84;4885540;28;98649;-72
2021/08/10 04:49:15;;;;;;;3.75;2.10;;;;;;;15.99;66.05;100876.41;4903001;28;98180;-65
2021/08/10 04:51:41;;;;;;;3.38;2.30;;;;;;;16.07;65.75;100882.03;4905051;28;97888;-65
2021/08/10 04:54:10;;;;;;;3.83;2.28;;;;;;;16.15;65.52;100885.97;4906323;28;98389;-71
2021/08/10 04:56:36;;;;;;;3.25;2.10;;;;;;;16.22;65.43;100882.88;4906348;28;97905;-65
2021/08/10 04:59:02;;;;;;;5.25;2.28;;;;;;;16.32;65.25;100878.09;4905557;28;114755;-72
2021/08/10 05:01:28;;;;;;;3.03;2.05;;;;;;;16.48;64.73;100878.66;4903226;28;122701;-65
2021/08/10 05:03:54;;;;;;;4.75;2.22;;;;;;;16.64;64.78;100880.03;4872548;28;100502;-72
2021/08/10 05:06:20;;;;;;;4.55;2.20;;;;;;;16.80;64.22;100879.81;4905350;28;126772;-72
2021/08/10 05:08:46;;;;;;;4.90;2.50;;;;;;;16.91;64.26;100878.53;4905402;28;127581;-65
2021/08/10 05:11:13;;;;;;;10.02;2.50;;;;;;;17.02;63.68;100884.59;4906516;28;98114;-65
2021/08/10 05:13:42;;;;;;;3.40;2.25;;;;;;;17.09;63.68;100877.63;4887864;28;98538;-72
2021/08/10 05:16:08;;;;;;;5.53;2.47;;;;;;;17.20;63.61;100880.97;4904834;28;127959;-72
2021/08/10 05:18:34;;;;;;;4.68;1.95;;;;;;;17.28;63.38;100879.47;4905656;28;125051;-65
2021/08/10 05:21:00;;;;;;;5.32;2.20;;;;;;;17.35;63.20;100879.88;4887636;28;97993;-65
2021/08/10 05:23:26;;;;;;;6.82;2.08;;;;;;;17.40;62.96;100868.88;4918977;28;128399;-65
2021/08/10 05:25:53;;;;;;;4.18;2.15;;;;;;;17.44;62.72;100864.44;4903310;28;130878;-71
2021/08/10 05:28:19;;;;;;;5.07;2.17;;;;;;;17.47;63.00;100869.28;4871754;28;97967;-72
2021/08/10 05:30:45;;;;;;;4.88;2.03;;;;;;;17.55;62.68;100863.13;4887557;28;98048;-65
2021/08/10 05:33:11;;;;;;;4.22;1.90;;;;;;;17.61;62.49;100870.09;4903352;28;98743;-65
2021/08/10 05:35:38;;;;;;;5.00;2.10;;;;;;;17.64;62.37;100869.47;4887120;28;124189;-72
2021/08/10 05:38:04;;;;;;;9.90;2.60;;;;;;;17.63;62.46;100875.22;4869059;28;99172;-72
2021/08/10 05:40:30;;;;;;;7.53;2.58;;;;;;;17.63;62.58;100872.50;4884027;28;121632;-65
2021/08/10 05:42:56;;;;;;;3.80;2.00;;;;;;;17.60;62.82;100878.53;4903007;28;127947;-72
2021/08/10 05:45:22;;;;;;;6.53;2.35;;;;;;;17.61;62.87;100877.47;4900516;28;128128;-72
2021/08/10 05:47:48;;;;;;;4.40;2.00;;;;;;;17.63;62.89;100880.66;4902285;28;98435;-65
2021/08/10 05:50:14;;;;;;;3.70;1.70;;;;;;;17.71;62.56;100877.22;4901721;28;120393;-71
2021/08/10 05:52:40;;;;;;;3.58;1.80;;;;;;;17.79;62.56;100882.00;4901411;28;128612;-71
2021/08/10 05:55:07;;;;;;;4.43;2.20;;;;;;;17.89;62.64;100875.53;4901356;28;128745;-71
2021/08/10 05:57:33;;;;;;;3.67;2.08;;;;;;;17.95;61.91;100878.94;4901690;28;110602;-65
2021/08/10 05:59:59;;;;;;;2.78;1.70;;;;;;;17.98;62.05;100878.31;4903161;28;97669;-71
2021/08/10 06:02:25;;;;;;;3.95;1.73;;;;;;;18.01;61.78;100875.00;4901249;28;128836;-71
2021/08/10 06:04:52;;;;;;;4.93;2.20;;;;;;;18.06;61.89;100867.47;4902195;28;98424;-72
2021/08/10 06:07:18;;;;;;;4.38;1.70;;;;;;;18.13;61.82;100872.53;4902169;28;98235;-65
2021/08/10 06:09:44;;;;;;;2.80;1.55;;;;;;;18.17;61.94;100872.72;4901420;28;123790;-72
2021/08/10 06:12:10;;;;;;;2.55;1.50;;;;;;;18.19;61.84;100860.38;4902495;28;97915;-65
2021/08/10 06:14:37;;;;;;;2.88;1.70;;;;;;;18.20;61.91;100862.00;4901829;28;98802;-71
2021/08/10 06:17:03;;;;;;;3.03;1.75;;;;;;;18.22;61.65;100865.22;4902397;28;102951;-71
2021/08/10 06:19:29;;;;;;;2.80;1.50;;;;;;;18.27;61.56;100865.06;4902963;28;98505;-72
2021/08/10 06:21:55;;;;;;;4.10;1.80;;;;;;;18.37;61.82;100862.13;4900683;28;128035;-65
2021/08/10 06:24:21;;;;;;;3.78;1.67;;;;;;;18.52;61.58;100858.22;4901358;28;104987;-72
2021/08/10 06:26:47;;;;;;;3.22;1.63;;;;;;;18.71;61.18;100865.44;4901460;28;97915;-72
2021/08/10 06:29:13;;;;;;;3.92;1.52;;;;;;;18.83;60.83;100858.28;4900694;28;122609;-65
2021/08/10 06:31:39;;;;;;;2.83;1.60;;;;;;;19.01;60.27;100847.41;4902352;28;127495;-72
2021/08/10 06:34:05;;;;;;;3.13;1.50;;;;;;;19.19;60.01;100857.31;4900309;28;128029;-72
2021/08/10 06:36:32;;;;;;;3.50;1.60;;;;;;;19.42;59.74;100855.31;4900924;28;127538;-72
2021/08/10 06:38:58;;;;;;;3.97;1.65;;;;;;;19.72;59.28;100850.06;4901550;28;97880;-65
2021/08/10 06:41:24;;;;;;;2.85;1.48;;;;;;;19.95;58.39;100845.28;4900360;28;126005;-65
2021/08/10 06:43:50;;;;;;;2.95;1.50;;;;;;;20.18;58.24;100843.19;4900817;28;127341;-71
2021/08/10 06:46:16;;;;;;;3.58;1.40;;;;;;;20.39;57.91;100837.84;4899193;28;127590;-71
2021/08/10 06:48:42;;;;;;;6.38;2.20;;;;;;;20.68;57.18;100853.63;4900379;28;99110;-71
2021/08/10 06:51:08;;;;;;;2.60;1.33;;;;;;;20.93;56.41;100852.72;4901580;28;105819;-65
2021/08/10 06:53:34;;;;;;;3.80;1.27;;;;;;;21.10;56.05;100849.13;4898656;28;127304;-65
2021/08/10 06:56:00;;;;;;;3.58;1.10;;;;;;;21.30;55.14;100848.41;4897507;28;127270;-65
2021/08/10 06:58:26;;;;;;;2.45;1.00;;;;;;;21.52;55.05;100857.50;4900333;28;98119;-71
2021/08/10 07:00:52;;;;;;;2.33;1.20;;;;;;;21.71;54.56;100852.38;4901323;28;98270;-65
2021/08/10 07:03:18;;;;;;;3.13;1.10;;;;;;;21.79;53.61;100857.00;4900993;28;98332;-71
2021/08/10 07:05:44;;;;;;;4.60;1.30;;;;;;;21.72;54.18;100861.41;4901077;28;103507;-65
2021/08/10 07:08:10;;;;;;;2.97;1.20;;;;;;;21.64;54.14;100857.56;4902115;28;97708;-71
2021/08/10 07:10:36;;;;;;;2.00;1.40;;;;;;;21.62;54.21;100854.38;4900795;28;98473;-72
2021/08/10 07:13:02;;;;;;;3.85;1.30;;;;;;;21.70;53.98;100847.22;4898604;28;125105;-71
2021/08/10 07:15:28;;;;;;;2.90;1.10;;;;;;;21.81;53.78;100841.03;4899589;28;98130;-71
2021/08/10 07:17:54;;;;;;;1.88;1.00;;;;;;;22.05;53.48;100845.03;4899766;28;97827;-65
2021/08/10 07:20:21;;;;;;;2.88;0.98;;;;;;;22.27;52.58;100849.38;4897820;28;127252;-66
2021/08/10 07:22:47;;;;;;;3.05;1.05;;;;;;;22.60;51.89;100846.66;4881838;28;126620;-71
2021/08/10 07:25:13;;;;;;;3.17;1.25;;;;;;;23.20;50.56;100847.91;4901088;28;98048;-71
2021/08/10 07:27:39;;;;;;;2.55;1.38;;;;;;;23.37;50.25;100859.81;4900803;28;122415;-71
2021/08/10 07:30:06;;;;;;;3.28;1.13;;;;;;;23.61;50.16;100853.50;4899929;28;126051;-71
2021/08/10 07:32:32;;;;;;;2.83;1.10;;;;;;;23.76;49.69;100863.81;4900602;28;98544;-71
2021/08/10 07:34:58;;;;;;;3.53;0.90;;;;;;;23.72;49.69;100860.16;4900543;28;128334;-71
2021/08/10 07:37:24;;;;;;;3.28;0.93;;;;;;;24.29;48.44;100850.81;4901079;28;97764;-65
2021/08/10 07:39:50;;;;;;;2.97;1.00;;;;;;;24.51;48.65;100854.97;4900404;28;126003;-66
2021/08/10 07:42:16;;;;;;;2.33;0.75;;;;;;;25.03;47.24;100856.72;4899783;28;126727;-72
2021/08/10 07:44:42;;;;;;;2.22;0.73;;;;;;;24.92;47.27;100858.44;4899207;28;126299;-65
2021/08/10 07:47:08;;;;;;;2.60;0.90;;;;;;;24.77;47.98;100846.22;4900517;28;122625;-71
2021/08/10 07:49:34;;;;;;;2.38;0.80;;;;;;;24.62;47.66;100845.03;4901232;28;98182;-65
2021/08/10 07:52:01;;;;;;;2.17;1.20;;;;;;;24.45;48.23;100851.69;4898369;28;98436;-65
2021/08/10 07:54:27;;;;;;;2.85;0.73;;;;;;;24.30;48.00;100849.66;4897965;28;99875;-65
2021/08/10 07:56:53;;;;;;;1.80;0.75;;;;;;;24.13;48.32;100839.75;4899823;28;122936;-70
2021/08/10 07:59:19;;;;;;;2.65;1.00;;;;;;;23.95;48.69;100835.69;4899809;28;114553;-65
2021/08/10 08:01:45;;;;;;;2.38;0.80;;;;;;;23.75;49.07;100835.50;4899366;28;118083;-72
2021/08/10 08:04:11;;;;;;;1.65;0.80;;;;;;;23.60;49.73;100821.63;4881660;28;129744;-71
2021/08/10 08:06:37;;;;;;;1.80;0.80;;;;;;;23.41;49.55;100820.28;4899721;28;108400;-71
2021/08/10 08:09:03;;;;;;;3.38;0.90;;;;;;;23.27;50.03;100817.88;4900415;28;101624;-71
2021/08/10 08:11:29;;;;;;;1.95;0.80;;;;;;;23.14;49.89;100813.53;4878966;28;128104;-71
2021/08/10 08:13:55;;;;;;;2.03;0.80;;;;;;;23.07;49.70;100818.00;4897272;28;126354;-71
2021/08/10 08:16:21;;;;;;;2.38;0.85;;;;;;;23.09;49.68;100800.00;4898045;28;122743;-65
2021/08/10 08:18:47;;;;;;;3.92;1.10;;;;;;;23.23;49.13;100802.44;4899015;28;128183;-71
2021/08/10 08:21:13;;;;;;;1.77;0.90;;;;;;;23.32;49.60;100803.09;4899709;28;109131;-65
2021/08/10 08:23:40;;;;;;;1.90;1.02;;;;;;;23.36;49.22;100815.00;4900382;28;98024;-65
2021/08/10 08:26:06;;;;;;;2.05;1.02;;;;;;;23.50;48.79;100811.88;4867054;28;98014;-65
2021/08/10 08:28:33;;;;;;;2.65;1.10;;;;;;;23.87;48.45;100809.09;4881865;28;98667;-70
2021/08/10 08:31:02;;;;;;;3.35;0.95;;;;;;;24.18;47.70;100808.41;4900776;28;98480;-70
2021/08/10 08:33:28;;;;;;;2.83;0.88;;;;;;;24.67;46.96;100814.47;4900494;28;98244;-70
2021/08/10 08:35:54;;;;;;;1.50;0.90;;;;;;;25.70;44.90;100816.16;4881893;28;122233;-70
2021/08/10 08:38:20;;;;;;;3.08;1.00;;;;;;;27.07;42.77;100822.31;4898772;28;125976;-70
2021/08/10 08:40:47;;;;;;;3.25;0.90;;;;;;;28.44;40.46;100823.81;4899637;28;98304;-65
2021/08/10 08:43:16;;;;;;;1.98;1.00;;;;;;;30.44;37.34;100830.66;4898600;28;98466;-71
2021/08/10 08:45:42;;;;;;;1.95;0.90;;;;;;;31.66;35.58;100820.31;4882132;28;101529;-64
2021/08/10 08:48:13;;;;;;;3.30;0.60;;;;;;;30.46;36.75;100827.50;4899546;28;99239;-65
2021/08/10 08:50:40;;;;;;;2.17;0.90;;;;;;;29.29;38.10;100820.19;4899766;28;99046;-70
2021/08/10 08:53:06;;;;;;;2.47;0.85;;;;;;;28.42;39.23;100806.78;4899598;28;98120;-70
2021/08/10 08:55:33;;;;;;;2.50;0.80;;;;;;;27.71;40.40;100814.19;4897262;28;115372;-70
2021/08/10 08:58:00;;;;;;;1.67;0.60;;;;;;;27.12;41.93;100811.78;4897301;28;128170;-69
2021/08/10 09:00:26;;;;;;;1.70;0.70;;;;;;;26.66;42.34;100814.53;4900133;28;98624;-69
2021/08/10 09:02:52;;;;;;;3.08;1.00;;;;;;;26.28;42.49;100806.28;4899290;28;127589;-64
2021/08/10 09:05:18;;;;;;;2.47;0.90;;;;;;;25.97;43.35;100796.22;4898920;28;123386;-70
2021/08/10 09:07:44;;;;;;;2.00;0.90;;;;;;;25.62;44.72;100810.84;4899598;28;98197;-64
2021/08/10 09:10:16;;;;;;;2.92;1.10;;;;;;;25.18;45.56;100811.81;4896453;28;128223;-69
2021/08/10 09:12:47;;;;;;;1.95;0.90;;;;;;;24.81;46.21;100810.50;4898822;28;98039;-65
2021/08/10 09:15:36;;;;;;;2.50;0.80;;;;;;;24.49;46.83;100819.53;4899681;28;99494;-65
2021/08/10 09:18:13;;;;;;;2.88;1.00;;;;;;;24.25;47.36;100823.19;4899921;28;98529;-70
2021/08/10 09:20:40;;;;;;;2.60;0.88;;;;;;;24.07;48.14;100829.34;4902627;28;120226;-69
2021/08/10 09:23:06;;;;;;;2.03;1.00;;;;;;;23.85;48.38;100825.94;4900791;28;97700;-65
2021/08/10 09:25:33;;;;;;;2.28;1.00;;;;;;;23.66;49.43;100837.59;4905958;28;123682;-64
2021/08/10 09:28:07;;;;;;;3.72;1.20;;;;;;;23.49;49.60;100832.28;4884251;28;109959;-65
2021/08/10 09:30:34;;;;;;;2.38;0.90;;;;;;;23.46;50.21;100836.56;4902276;28;114966;-72
2021/08/10 09:33:05;;;;;;;2.35;1.00;;;;;;;23.40;50.27;100834.38;4902284;28;98613;-65
2021/08/10 09:35:40;;;;;;;3.88;1.20;;;;;;;23.24;50.40;100846.06;4902704;28;97983;-65
2021/08/10 09:38:24;;;;;;;1.95;1.15;;;;;;;23.05;51.11;100845.03;4901884;28;128135;-64
2021/08/10 09:40:52;;;;;;;3.40;1.10;;;;;;;22.91;51.97;100856.34;4902827;28;99213;-64
2021/08/10 09:43:35;;;;;;;3.97;1.10;;;;;;;22.72;52.76;100856.88;4903092;28;97931;-70
2021/08/10 09:46:13;;;;;;;3.72;1.23;;;;;;;22.48;53.10;100861.16;4902978;28;97782;-64
2021/08/10 09:48:56;;;;;;;3.47;1.23;;;;;;;22.42;54.41;100856.19;4901834;28;98372;-70
2021/08/10 09:51:30;;;;;;;2.55;1.38;;;;;;;22.36;54.42;100858.34;4900676;28;98039;-70
2021/08/10 09:54:04;;;;;;;3.40;1.50;;;;;;;22.31;54.46;100866.78;4902544;28;98203;-64
2021/08/10 09:56:51;;;;;;;3.28;1.48;;;;;;;22.27;54.65;100861.16;4902501;28;98076;-70
2021/08/10 09:59:27;;;;;;;1.88;1.42;;;;;;;22.23;54.61;100870.41;4902426;28;98346;-70
2021/08/10 10:01:59;;;;;;;5.28;1.60;;;;;;;22.14;54.88;100862.25;4902419;28;98024;-70
2021/08/10 10:04:27;;;;;;;4.20;1.42;;;;;;;22.08;55.49;100862.75;4902087;28;97675;-64
2021/08/10 10:06:55;;;;;;;3.10;1.55;;;;;;;22.00;55.56;100867.97;4903158;28;97678;-64
2021/08/10 10:09:23;;;;;;;2.85;1.70;;;;;;;22.02;55.78;100868.44;4901854;28;102101;-65
2021/08/10 10:11:50;;;;;;;3.25;1.55;;;;;;;22.10;55.30;100866.78;4903037;28;98557;-70
2021/08/10 10:14:16;;;;;;;3.20;1.40;;;;;;;22.05;55.40;100875.22;4884187;28;98090;-65
2021/08/10 10:16:48;;;;;;;3.80;1.65;;;;;;;21.90;55.59;100881.31;4902384;28;108526;-69
2021/08/10 10:19:16;;;;;;;2.38;1.30;;;;;;;21.88;55.73;100862.41;4884336;28;99837;-64
2021/08/10 10:21:47;;;;;;;3.05;1.38;;;;;;;21.97;55.47;100854.94;4884602;28;98395;-65
2021/08/10 10:24:14;;;;;;;5.20;1.60;;;;;;;22.22;54.60;100855.88;4901559;28;98440;-65
2021/08/10 10:26:47;;;;;;;2.65;0.98;;;;;;;23.19;52.85;100871.06;4903199;28;97819;-65
2021/08/10 10:29:14;;;;;;;1.80;1.20;;;;;;;24.30;50.39;100857.13;4899915;28;98795;-70
2021/08/10 10:31:41;;;;;;;2.30;1.20;;;;;;;24.06;51.69;100874.53;4901487;28;99347;-70
2021/08/10 10:34:07;;;;;;;3.38;1.17;;;;;;;23.67;51.84;100874.97;4901439;28;99509;-65
2021/08/10 10:36:35;;;;;;;2.58;1.15;;;;;;;23.19;53.17;100892.25;4899636;28;108107;-65
2021/08/10 10:39:01;;;;;;;3.83;1.00;;;;;;;22.78;53.52;100897.50;4899775;28;97928;-65
2021/08/10 10:41:32;;;;;;;3.05;1.30;;;;;;;22.37;54.02;100892.91;4900009;28;99535;-69
2021/08/10 10:43:58;;;;;;;2.30;1.17;;;;;;;22.10;54.82;100907.94;4899903;28;98318;-64
2021/08/10 10:46:27;;;;;;;2.63;1.10;;;;;;;21.88;55.84;100920.03;4900319;28;103006;-69
2021/08/10 10:48:53;;;;;;;5.05;1.35;;;;;;;21.69;56.13;100911.44;4902926;28;98162;-69
2021/08/10 10:51:38;;;;;;;2.83;0.98;;;;;;;21.48;56.09;100908.66;4901548;28;98357;-69
2021/08/10 10:54:27;;;;;;;3.58;1.00;;;;;;;21.30;56.37;100918.88;4900779;28;97792;-69
2021/08/10 10:57:00;;;;;;;2.50;0.80;;;;;;;21.11;56.63;100922.00;4903152;28;97910;-69
2021/08/10 10:59:39;;;;;;;4.57;1.10;;;;;;;20.93;56.98;100936.88;4899497;28;98701;-70
2021/08/10 11:02:38;;;;;;;2.90;1.10;;;;;;;20.70;57.49;100950.75;4901600;28;98868;-70
2021/08/10 11:05:07;;;;;;;5.57;1.00;;;;;;;20.55;58.33;100954.81;4901580;28;98268;-65
2021/08/10 11:07:37;;;;;;;3.95;1.33;;;;;;;20.42;58.79;100955.72;4918655;28;99485;-71
2021/08/10 11:10:10;;;;;;;4.53;1.33;;;;;;;20.31;59.40;100951.69;4907777;28;99064;-70
2021/08/10 11:12:44;;;;;;;2.97;1.33;;;;;;;20.12;59.67;100941.03;4906194;28;98632;-70
2021/08/10 11:15:18;;;;;;;1.98;1.02;;;;;;;19.96;60.14;100940.69;4901703;28;97989;-70
2021/08/10 11:18:08;;;;;;;2.35;1.05;;;;;;;19.82;60.22;100927.16;4901929;28;97848;-64
2021/08/10 11:20:36;;;;;;;6.53;1.20;;;;;;;19.78;61.40;100928.13;4901862;28;98618;-69
2021/08/10 11:23:24;;;;;;;2.75;1.10;;;;;;;19.68;61.06;100933.88;4903572;28;116194;-69
2021/08/10 11:26:02;;;;;;;4.05;1.35;;;;;;;19.65;61.75;100934.50;4901914;28;97782;-70
2021/08/10 11:28:46;;;;;;;3.58;1.30;;;;;;;19.61;61.57;100939.78;4897983;28;98205;-65